createdAt,value
2022-11-26T00:00:28.260Z,29.38
2022-11-26T00:01:28.248Z,29.81
2022-11-26T00:02:28.557Z,29.5
2022-11-26T00:03:28.349Z,29.17
2022-11-26T00:04:28.246Z,28.94
2022-11-26T00:05:28.266Z,28.94
2022-11-26T00:06:28.272Z,29.31
2022-11-26T00:07:28.326Z,29.66
2022-11-26T00:08:28.252Z,28.66
2022-11-26T00:09:28.261Z,29.4
2022-11-26T00:10:28.261Z,29.35
2022-11-26T00:11:28.248Z,28.7
2022-11-26T00:12:28.255Z,28.84
2022-11-26T00:13:28.250Z,28.54
2022-11-26T00:14:28.249Z,28.45
2022-11-26T00:15:28.266Z,29.19
2022-11-26T00:16:28.296Z,29.19
2022-11-26T00:17:28.247Z,28.68
2022-11-26T00:18:28.266Z,28.68
2022-11-26T00:19:28.243Z,28.6
2022-11-26T00:20:28.253Z,28.33
2022-11-26T00:21:28.246Z,27.89
2022-11-26T00:22:28.229Z,27.89
2022-11-26T00:23:28.247Z,27.53
2022-11-26T00:24:28.248Z,28.03
2022-11-26T00:25:28.270Z,27.55
2022-11-26T00:26:28.249Z,28.07
2022-11-26T00:27:28.246Z,28.44
2022-11-26T00:28:28.322Z,27.59
2022-11-26T00:29:28.244Z,26.84
2022-11-26T00:30:28.271Z,26.84
2022-11-26T00:31:28.245Z,27.25
2022-11-26T00:32:28.231Z,27.63
2022-11-26T00:33:28.231Z,27.63
2022-11-26T00:34:28.243Z,27.63
2022-11-26T00:35:28.281Z,27.63
2022-11-26T00:36:28.239Z,27.63
2022-11-26T00:37:28.233Z,27.63
2022-11-26T00:38:28.238Z,27.63
2022-11-26T00:39:28.235Z,27.63
2022-11-26T00:40:28.259Z,27.63
2022-11-26T00:41:28.228Z,27.63
2022-11-26T00:42:28.232Z,27.63
2022-11-26T00:43:28.235Z,27.63
2022-11-26T00:44:28.226Z,27.63
2022-11-26T00:45:28.350Z,27.63
2022-11-26T00:46:28.241Z,27.63
2022-11-26T00:47:28.239Z,27.63
2022-11-26T00:48:28.238Z,27.63
2022-11-26T00:49:28.233Z,27.63
2022-11-26T00:50:28.275Z,27.63
2022-11-26T00:51:28.227Z,27.63
2022-11-26T00:52:28.231Z,27.63
2022-11-26T00:53:28.229Z,27.63
2022-11-26T00:54:28.230Z,27.63
2022-11-26T00:55:28.262Z,27.63
2022-11-26T00:56:28.263Z,27.63
2022-11-26T00:57:28.234Z,27.63
2022-11-26T00:58:28.268Z,27.63
2022-11-26T00:59:28.258Z,27.63
2022-11-26T01:00:28.249Z,27.63
2022-11-26T01:01:28.367Z,27.63
2022-11-26T01:02:28.275Z,27.63
2022-11-26T01:03:28.246Z,27.63
2022-11-26T01:04:28.244Z,27.63
2022-11-26T01:05:28.266Z,27.63
2022-11-26T01:06:28.251Z,27.63
2022-11-26T01:07:28.287Z,27.63
2022-11-26T01:08:28.244Z,27.63
2022-11-26T01:09:28.251Z,27.63
2022-11-26T01:10:28.272Z,27.63
2022-11-26T01:11:28.255Z,27.63
2022-11-26T01:12:28.261Z,27.63
2022-11-26T01:13:28.240Z,27.63
2022-11-26T01:14:28.240Z,27.63
2022-11-26T01:15:28.260Z,27.63
2022-11-26T01:16:28.295Z,27.63
2022-11-26T01:17:28.252Z,27.63
2022-11-26T01:18:28.241Z,27.63
2022-11-26T01:19:28.319Z,27.63
2022-11-26T01:20:28.268Z,27.63
2022-11-26T01:21:28.250Z,27.63
2022-11-26T01:22:28.247Z,27.63
2022-11-26T01:23:28.243Z,27.63
2022-11-26T01:24:28.249Z,27.63
2022-11-26T01:25:28.255Z,27.63
2022-11-26T01:26:28.247Z,27.63
2022-11-26T01:27:28.247Z,27.63
2022-11-26T01:28:28.241Z,27.63
2022-11-26T01:29:28.250Z,27.63
2022-11-26T01:30:28.253Z,27.63
2022-11-26T01:31:28.278Z,27.63
2022-11-26T01:32:29.577Z,27.63
2022-11-26T01:33:28.247Z,27.63
2022-11-26T01:34:28.244Z,27.63
2022-11-26T01:35:28.247Z,27.63
2022-11-26T01:36:28.252Z,27.63
2022-11-26T01:37:28.244Z,27.63
2022-11-26T01:38:28.251Z,27.63
2022-11-26T01:39:28.253Z,27.63
2022-11-26T01:40:28.257Z,27.63
2022-11-26T01:41:28.247Z,27.63
2022-11-26T01:42:28.229Z,27.63
2022-11-26T01:43:28.241Z,27.63
2022-11-26T01:44:28.252Z,27.63
2022-11-26T01:45:28.292Z,27.63
2022-11-26T01:46:28.255Z,27.63
2022-11-26T01:47:28.249Z,27.63
2022-11-26T01:48:28.227Z,27.63
2022-11-26T01:49:28.250Z,27.63
2022-11-26T01:50:28.248Z,27.63
2022-11-26T01:51:28.233Z,27.63
2022-11-26T01:52:28.236Z,27.63
2022-11-26T01:53:28.235Z,27.63
2022-11-26T01:54:28.238Z,27.63
2022-11-26T01:55:28.270Z,27.63
2022-11-26T01:56:28.231Z,27.63
2022-11-26T01:57:28.333Z,27.63
2022-11-26T01:58:28.236Z,27.63
2022-11-26T01:59:28.232Z,27.63
2022-11-26T02:00:28.306Z,27.63
2022-11-26T02:01:28.322Z,27.63
2022-11-26T02:02:28.321Z,27.63
2022-11-26T02:03:28.236Z,27.63
2022-11-26T02:04:28.234Z,27.63
2022-11-26T02:05:28.257Z,27.63
2022-11-26T02:06:28.229Z,27.63
2022-11-26T02:07:28.281Z,27.63
2022-11-26T02:08:28.247Z,27.63
2022-11-26T02:09:28.236Z,27.63
2022-11-26T02:10:28.259Z,27.63
2022-11-26T02:11:28.255Z,27.63
2022-11-26T02:12:28.235Z,27.63
2022-11-26T02:13:28.253Z,27.63
2022-11-26T02:14:28.256Z,27.63
2022-11-26T02:15:28.260Z,27.63
2022-11-26T02:16:28.291Z,27.63
2022-11-26T02:17:28.245Z,27.63
2022-11-26T02:18:28.241Z,27.63
2022-11-26T02:19:28.250Z,27.63
2022-11-26T02:20:28.256Z,27.63
2022-11-26T02:21:28.247Z,27.63
2022-11-26T02:22:28.249Z,27.63
2022-11-26T02:23:28.256Z,27.63
2022-11-26T02:24:28.251Z,27.63
2022-11-26T02:25:28.262Z,27.63
2022-11-26T02:26:28.247Z,27.63
2022-11-26T02:27:28.242Z,27.63
2022-11-26T02:28:28.296Z,27.63
2022-11-26T02:29:28.228Z,27.63
2022-11-26T02:30:28.262Z,27.63
2022-11-26T02:31:28.309Z,27.63
2022-11-26T02:32:28.246Z,27.63
2022-11-26T02:33:28.246Z,27.63
2022-11-26T02:34:30.605Z,27.63
2022-11-26T02:35:28.268Z,27.63
2022-11-26T02:36:28.248Z,27.63
2022-11-26T02:37:28.246Z,27.63
2022-11-26T02:38:28.242Z,27.63
2022-11-26T02:39:28.245Z,27.63
2022-11-26T02:40:28.250Z,27.63
2022-11-26T02:41:28.244Z,27.63
2022-11-26T02:42:28.250Z,27.63
2022-11-26T02:43:28.258Z,27.63
2022-11-26T02:44:28.260Z,27.63
2022-11-26T02:45:28.322Z,27.63
2022-11-26T02:46:28.246Z,27.63
2022-11-26T02:47:28.282Z,27.63
2022-11-26T02:48:28.248Z,27.63
2022-11-26T02:49:28.234Z,27.63
2022-11-26T02:50:28.255Z,27.63
2022-11-26T02:53:28.254Z,27.63
2022-11-26T02:54:28.250Z,27.63
2022-11-26T02:55:28.248Z,27.63
2022-11-26T02:56:28.261Z,27.63
2022-11-26T02:57:28.236Z,27.63
2022-11-26T02:58:28.234Z,27.63
2022-11-26T02:59:28.235Z,27.63
2022-11-26T03:00:28.256Z,27.63
2022-11-26T03:01:28.303Z,27.63
2022-11-26T03:02:28.239Z,27.63
2022-11-26T03:03:28.277Z,27.63
2022-11-26T03:04:28.317Z,27.63
2022-11-26T03:05:28.248Z,27.63
2022-11-26T03:06:28.229Z,27.63
2022-11-26T03:07:28.262Z,27.63
2022-11-26T03:08:28.233Z,27.63
2022-11-26T03:09:28.237Z,27.63
2022-11-26T03:10:28.263Z,27.63
2022-11-26T03:11:28.315Z,27.63
2022-11-26T03:12:28.263Z,27.63
2022-11-26T03:13:28.245Z,27.63
2022-11-26T03:14:28.235Z,27.63
2022-11-26T03:15:28.259Z,27.63
2022-11-26T03:16:28.262Z,27.63
2022-11-26T03:17:28.232Z,27.63
2022-11-26T03:18:28.242Z,27.63
2022-11-26T03:19:28.243Z,25.31
2022-11-26T03:20:28.248Z,25.31
2022-11-26T03:21:28.250Z,25.91
2022-11-26T03:22:28.255Z,25.57
2022-11-26T03:23:28.250Z,25.82
2022-11-26T03:24:28.234Z,25.82
2022-11-26T03:25:28.256Z,25.64
2022-11-26T03:26:28.247Z,26.03
2022-11-26T03:27:28.249Z,26.27
2022-11-26T03:28:28.242Z,25.89
2022-11-26T03:29:28.248Z,26.05
2022-11-26T03:30:28.257Z,26.05
2022-11-26T03:31:28.366Z,25.81
2022-11-26T03:32:28.256Z,26.08
2022-11-26T03:33:28.252Z,26.08
2022-11-26T03:34:28.249Z,26.5
2022-11-26T03:35:28.275Z,26.5
2022-11-26T03:36:28.252Z,27.2
2022-11-26T03:37:28.248Z,27.61
2022-11-26T03:38:28.251Z,26.94
2022-11-26T03:39:28.248Z,26.36
2022-11-26T03:40:28.271Z,26.7
2022-11-26T03:41:28.251Z,26.61
2022-11-26T03:42:28.259Z,26.43
2022-11-26T03:43:28.254Z,25.89
2022-11-26T03:44:28.253Z,26.38
2022-11-26T03:45:28.304Z,26.37
2022-11-26T03:46:28.247Z,26.7
2022-11-26T03:47:28.248Z,26.29
2022-11-26T03:48:28.248Z,26.2
2022-11-26T03:49:28.252Z,27.03
2022-11-26T03:50:28.248Z,27.03
2022-11-26T03:51:28.261Z,27.03
2022-11-26T03:52:28.238Z,27.03
2022-11-26T03:53:28.259Z,25.98
2022-11-26T03:54:28.265Z,26.27
2022-11-26T03:55:28.290Z,26.47
2022-11-26T03:56:28.257Z,26.44
2022-11-26T03:57:28.251Z,26.82
2022-11-26T03:58:28.251Z,26.62
2022-11-26T03:59:28.231Z,26.62
2022-11-26T04:00:28.284Z,26.61
2022-11-26T04:01:28.340Z,26.28
2022-11-26T04:02:28.252Z,26.28
2022-11-26T04:03:28.274Z,26.55
2022-11-26T04:04:28.235Z,26.58
2022-11-26T04:05:28.252Z,26.56
2022-11-26T04:06:28.236Z,27.06
2022-11-26T04:07:28.326Z,26.91
2022-11-26T04:08:28.240Z,26.69
2022-11-26T04:09:28.241Z,26.44
2022-11-26T04:10:28.249Z,26.58
2022-11-26T04:11:28.244Z,26.65
2022-11-26T04:12:28.275Z,26.44
2022-11-26T04:13:28.239Z,27.38
2022-11-26T04:14:28.256Z,26.91
2022-11-26T04:15:28.250Z,26.88
2022-11-26T04:16:28.266Z,27.26
2022-11-26T04:17:28.234Z,26.85
2022-11-26T04:18:28.240Z,26.85
2022-11-26T04:19:28.234Z,26.59
2022-11-26T04:20:28.263Z,26.86
2022-11-26T04:21:28.240Z,26.86
2022-11-26T04:22:28.268Z,26.46
2022-11-26T04:23:28.255Z,26.72
2022-11-26T04:24:28.252Z,26.87
2022-11-26T04:25:28.260Z,26.29
2022-11-26T04:26:28.295Z,26.4
2022-11-26T04:27:28.261Z,26.79
2022-11-26T04:28:28.247Z,26.51
2022-11-26T04:29:28.258Z,26.51
2022-11-26T04:30:30.029Z,26.51
2022-11-26T04:31:28.285Z,26.12
2022-11-26T04:32:28.334Z,26.12
2022-11-26T04:33:28.249Z,26.23
2022-11-26T04:34:28.253Z,26.01
2022-11-26T04:35:28.270Z,26.54
2022-11-26T04:36:28.256Z,26.62
2022-11-26T04:37:28.253Z,26.26
2022-11-26T04:38:28.253Z,26.58
2022-11-26T04:39:28.250Z,26.44
2022-11-26T04:40:28.264Z,26.63
2022-11-26T04:41:28.252Z,26.43
2022-11-26T04:42:28.258Z,26.08
2022-11-26T04:43:28.251Z,26.21
2022-11-26T04:44:28.255Z,26.27
2022-11-26T04:45:28.337Z,26.69
2022-11-26T04:46:28.257Z,26.23
2022-11-26T04:47:28.252Z,26.72
2022-11-26T04:48:28.248Z,26.5
2022-11-26T04:49:28.236Z,26.5
2022-11-26T04:50:28.253Z,26.07
2022-11-26T04:51:28.249Z,26.07
2022-11-26T04:52:28.254Z,25.7
2022-11-26T04:53:28.277Z,26.14
2022-11-26T04:54:28.255Z,26.04
2022-11-26T04:55:28.271Z,26.04
2022-11-26T04:56:28.252Z,25.91
2022-11-26T04:57:28.252Z,26.03
2022-11-26T04:58:28.242Z,26.03
2022-11-26T04:59:28.263Z,26.03
2022-11-26T05:00:28.254Z,26.03
2022-11-26T05:01:28.304Z,26.03
2022-11-26T05:02:28.276Z,26.03
2022-11-26T05:03:28.249Z,26.03
2022-11-26T05:04:28.252Z,26.03
2022-11-26T05:05:28.269Z,26.03
2022-11-26T05:06:28.238Z,26.03
2022-11-26T05:07:28.327Z,26.03
2022-11-26T05:08:28.248Z,26.03
2022-11-26T05:09:28.238Z,26.03
2022-11-26T05:10:28.266Z,26.03
2022-11-26T05:11:28.236Z,26.03
2022-11-26T05:12:28.228Z,26.03
2022-11-26T05:13:28.271Z,26.03
2022-11-26T05:14:28.234Z,26.03
2022-11-26T05:15:28.258Z,26.03
2022-11-26T05:16:28.299Z,26.03
2022-11-26T05:17:28.238Z,26.03
2022-11-26T05:18:28.231Z,26.03
2022-11-26T05:19:28.238Z,26.03
2022-11-26T05:20:28.253Z,26.03
2022-11-26T05:21:28.241Z,26.03
2022-11-26T05:22:28.242Z,26.03
2022-11-26T05:23:28.239Z,26.03
2022-11-26T05:24:28.247Z,26.03
2022-11-26T05:25:28.248Z,26.03
2022-11-26T05:26:28.237Z,26.03
2022-11-26T05:27:28.230Z,26.03
2022-11-26T05:28:28.243Z,26.03
2022-11-26T05:29:28.229Z,26.03
2022-11-26T05:30:28.274Z,26.03
2022-11-26T05:31:28.271Z,25.2
2022-11-26T05:32:28.254Z,25.6
2022-11-26T05:33:28.257Z,25.46
2022-11-26T05:34:28.258Z,25.78
2022-11-26T05:35:28.260Z,25.71
2022-11-26T05:36:28.262Z,25.88
2022-11-26T05:37:28.256Z,25.56
2022-11-26T05:38:28.233Z,25.67
2022-11-26T05:39:28.247Z,27.07
2022-11-26T05:40:28.269Z,27.07
2022-11-26T05:41:28.251Z,26.72
2022-11-26T05:42:28.254Z,26
2022-11-26T05:43:28.257Z,26.6
2022-11-26T05:44:28.251Z,26.93
2022-11-26T05:45:28.275Z,26.99
2022-11-26T05:46:28.254Z,27.18
2022-11-26T05:47:28.231Z,27.18
2022-11-26T05:48:28.248Z,27.45
2022-11-26T05:49:28.245Z,27.17
2022-11-26T05:50:28.267Z,27.17
2022-11-26T05:51:28.254Z,27.02
2022-11-26T05:52:28.244Z,26.96
2022-11-26T05:53:28.246Z,26.7
2022-11-26T05:54:28.253Z,26.73
2022-11-26T05:55:28.267Z,26.71
2022-11-26T05:56:28.244Z,26.78
2022-11-26T05:57:28.250Z,26.69
2022-11-26T05:58:28.237Z,26.69
2022-11-26T05:59:28.250Z,26.22
2022-11-26T06:00:28.290Z,26.22
2022-11-26T06:01:28.268Z,26.7
2022-11-26T06:02:28.375Z,26.7
2022-11-26T06:03:28.407Z,26.7
2022-11-26T06:04:28.242Z,26.7
2022-11-26T06:05:28.258Z,26.7
2022-11-26T06:06:28.241Z,26.7
2022-11-26T06:07:28.292Z,26.7
2022-11-26T06:08:28.255Z,26.7
2022-11-26T06:09:28.250Z,26.7
2022-11-26T06:10:28.262Z,26.7
2022-11-26T06:11:28.247Z,26.7
2022-11-26T06:12:28.245Z,26.7
2022-11-26T06:13:28.245Z,26.7
2022-11-26T06:14:28.248Z,26.7
2022-11-26T06:15:28.264Z,26.7
2022-11-26T06:16:28.301Z,26.7
2022-11-26T06:17:28.250Z,26.7
2022-11-26T06:18:28.254Z,26.7
2022-11-26T06:19:28.251Z,26.7
2022-11-26T06:20:28.260Z,26.7
2022-11-26T06:21:28.241Z,26.7
2022-11-26T06:22:28.248Z,26.7
2022-11-26T06:23:28.243Z,26.7
2022-11-26T06:24:28.259Z,26.7
2022-11-26T06:25:28.246Z,26.7
2022-11-26T06:26:28.232Z,26.7
2022-11-26T06:27:28.235Z,26.7
2022-11-26T06:28:28.236Z,26.7
2022-11-26T06:29:28.464Z,26.7
2022-11-26T06:30:28.298Z,26.7
2022-11-26T06:31:28.273Z,26.7
2022-11-26T06:32:28.237Z,26.7
2022-11-26T06:33:28.230Z,26.7
2022-11-26T06:34:28.237Z,26.7
2022-11-26T06:35:28.264Z,26.7
2022-11-26T06:36:28.243Z,26.7
2022-11-26T06:37:28.241Z,26.7
2022-11-26T06:38:28.264Z,26.7
2022-11-26T06:39:28.228Z,26.7
2022-11-26T06:40:28.261Z,26.7
2022-11-26T06:41:28.302Z,26.7
2022-11-26T06:42:28.236Z,26.7
2022-11-26T06:43:28.235Z,26.7
2022-11-26T06:44:28.247Z,26.7
2022-11-26T06:45:28.279Z,26.7
2022-11-26T06:46:28.240Z,26.7
2022-11-26T06:47:28.327Z,26.7
2022-11-26T06:48:28.246Z,26.7
2022-11-26T06:49:28.236Z,26.7
2022-11-26T06:50:28.264Z,26.7
2022-11-26T06:51:28.254Z,26.7
2022-11-26T06:52:28.245Z,26.7
2022-11-26T06:53:28.242Z,26.7
2022-11-26T06:54:28.249Z,26.7
2022-11-26T06:55:28.267Z,26.7
2022-11-26T06:56:28.259Z,26.7
2022-11-26T06:57:28.241Z,26.7
2022-11-26T06:58:28.251Z,26.7
2022-11-26T06:59:28.244Z,26.7
2022-11-26T07:00:28.257Z,26.7
2022-11-26T07:01:28.324Z,26.7
2022-11-26T07:02:28.289Z,26.7
2022-11-26T07:03:33.066Z,26.7
2022-11-26T07:04:28.247Z,26.7
2022-11-26T07:05:28.261Z,26.7
2022-11-26T07:06:28.242Z,26.7
2022-11-26T07:07:28.303Z,26.7
2022-11-26T07:08:28.244Z,26.7
2022-11-26T07:09:28.247Z,26.09
2022-11-26T07:10:28.263Z,26.09
2022-11-26T07:11:28.250Z,26.09
2022-11-26T07:12:28.231Z,26.09
2022-11-26T07:13:28.247Z,26.33
2022-11-26T07:14:28.251Z,26.32
2022-11-26T07:15:28.254Z,26.62
2022-11-26T07:16:28.334Z,26.36
2022-11-26T07:17:28.250Z,27.07
2022-11-26T07:18:28.254Z,27.03
2022-11-26T07:19:28.251Z,27.59
2022-11-26T07:20:28.268Z,27.45
2022-11-26T07:21:28.253Z,27.47
2022-11-26T07:22:28.239Z,26.79
2022-11-26T07:23:28.243Z,27.3
2022-11-26T07:24:28.247Z,26.93
2022-11-26T07:25:28.263Z,26.93
2022-11-26T07:26:28.255Z,27.06
2022-11-26T07:27:28.254Z,27.04
2022-11-26T07:28:28.252Z,26.9
2022-11-26T07:29:28.254Z,26.9
2022-11-26T07:30:28.261Z,26.74
2022-11-26T07:31:28.261Z,27.36
2022-11-26T07:32:28.252Z,26.82
2022-11-26T07:33:28.249Z,26.82
2022-11-26T07:34:28.254Z,27.32
2022-11-26T07:35:28.274Z,27.14
2022-11-26T07:36:28.238Z,27.17
2022-11-26T07:37:28.236Z,27.15
2022-11-26T07:38:28.236Z,26.99
2022-11-26T07:39:28.236Z,27.09
2022-11-26T07:40:28.327Z,26.37
2022-11-26T07:41:28.233Z,26.47
2022-11-26T07:42:28.248Z,26.45
2022-11-26T07:43:28.230Z,26.64
2022-11-26T07:44:28.230Z,26.25
2022-11-26T07:45:28.260Z,25.84
2022-11-26T07:46:28.373Z,25.77
2022-11-26T07:47:28.235Z,25.91
2022-11-26T07:48:28.238Z,26.19
2022-11-26T07:49:28.239Z,25.69
2022-11-26T07:50:28.319Z,26
2022-11-26T07:51:28.233Z,25.81
2022-11-26T07:52:28.238Z,26
2022-11-26T07:53:28.238Z,25.64
2022-11-26T07:54:28.234Z,25.84
2022-11-26T07:55:28.262Z,25.58
2022-11-26T07:56:28.244Z,25.54
2022-11-26T07:57:28.232Z,26.27
2022-11-26T07:58:28.243Z,26.04
2022-11-26T07:59:28.260Z,25.83
2022-11-26T08:00:28.351Z,25.81
2022-11-26T08:01:28.277Z,25.69
2022-11-26T08:02:28.336Z,25.69
2022-11-26T08:03:28.254Z,26.49
2022-11-26T08:04:28.249Z,26.19
2022-11-26T08:05:28.257Z,26.03
2022-11-26T08:06:28.242Z,26.32
2022-11-26T08:07:29.552Z,26.59
2022-11-26T08:08:28.261Z,26.81
2022-11-26T08:09:28.238Z,26.53
2022-11-26T08:10:28.251Z,26.69
2022-11-26T08:11:28.251Z,27.07
2022-11-26T08:12:28.255Z,26.77
2022-11-26T08:13:28.279Z,27.15
2022-11-26T08:14:28.247Z,26.93
2022-11-26T08:15:28.259Z,27.1
2022-11-26T08:16:29.173Z,26.81
2022-11-26T08:17:28.259Z,27.51
2022-11-26T08:18:28.249Z,26.79
2022-11-26T08:19:28.254Z,26.77
2022-11-26T08:20:29.211Z,26.56
2022-11-26T08:21:28.234Z,26.68
2022-11-26T08:22:28.248Z,26.3
2022-11-26T08:23:28.259Z,26.02
2022-11-26T08:24:28.253Z,26.21
2022-11-26T08:25:28.259Z,25.85
2022-11-26T08:26:34.721Z,26.17
2022-11-26T08:27:28.241Z,26.07
2022-11-26T08:28:28.240Z,25.91
2022-11-26T08:29:28.250Z,26
2022-11-26T08:30:28.276Z,25.93
2022-11-26T08:31:28.556Z,25.97
2022-11-26T08:32:28.244Z,25.97
2022-11-26T08:33:28.245Z,25.97
2022-11-26T08:34:28.247Z,25.97
2022-11-26T08:35:51.283Z,25.03
2022-11-26T08:36:28.253Z,25.54
2022-11-26T08:37:28.253Z,25.97
2022-11-26T08:38:28.232Z,25.97
2022-11-26T08:39:28.248Z,25.97
2022-11-26T08:40:28.262Z,25.97
2022-11-26T08:41:28.247Z,25.97
2022-11-26T08:42:28.255Z,25.97
2022-11-26T08:43:39.811Z,25.97
2022-11-26T08:44:28.260Z,25.97
2022-11-26T08:45:28.260Z,25.97
2022-11-26T08:46:28.321Z,25.97
2022-11-26T08:47:28.253Z,25.97
2022-11-26T08:48:31.799Z,25.97
2022-11-26T08:49:28.261Z,25.97
2022-11-26T08:50:28.301Z,25.37
2022-11-26T08:51:28.290Z,25.45
2022-11-26T08:52:28.227Z,26.35
2022-11-26T08:53:28.242Z,25.98
2022-11-26T08:54:28.235Z,26.19
2022-11-26T08:55:53.372Z,26.45
2022-11-26T08:56:28.229Z,26.45
2022-11-26T08:57:28.230Z,26.47
2022-11-26T08:58:28.230Z,26.15
2022-11-26T08:59:28.237Z,26.67
2022-11-26T09:00:28.259Z,26.6
2022-11-26T09:01:28.281Z,26.17
2022-11-26T09:02:28.232Z,26.25
2022-11-26T09:03:28.324Z,26.15
2022-11-26T09:04:28.234Z,26
2022-11-26T09:05:28.265Z,26.69
2022-11-26T09:06:28.235Z,26.25
2022-11-26T09:07:28.294Z,25.89
2022-11-26T09:08:28.235Z,25.6
2022-11-26T09:09:28.248Z,26.39
2022-11-26T09:10:28.264Z,26.76
2022-11-26T09:11:28.242Z,26.75
2022-11-26T09:12:28.248Z,26.13
2022-11-26T09:13:28.263Z,26.13
2022-11-26T09:14:28.333Z,26.13
2022-11-26T09:15:28.261Z,26.13
2022-11-26T09:16:28.325Z,26.13
2022-11-26T09:17:28.246Z,26.13
2022-11-26T09:18:28.239Z,26.13
2022-11-26T09:19:28.246Z,26.13
2022-11-26T09:20:28.269Z,26.13
2022-11-26T09:21:28.248Z,26.13
2022-11-26T09:22:28.267Z,26.13
2022-11-26T09:23:28.259Z,26.13
2022-11-26T09:24:28.249Z,26.13
2022-11-26T09:25:28.288Z,26.13
2022-11-26T09:26:28.249Z,26.13
2022-11-26T09:27:28.249Z,26.13
2022-11-26T09:28:28.311Z,26.13
2022-11-26T09:29:28.255Z,26.13
2022-11-26T09:30:28.259Z,26.13
2022-11-26T09:31:28.330Z,26.13
2022-11-26T09:32:32.593Z,26.13
2022-11-26T09:33:28.244Z,26.13
2022-11-26T09:34:28.233Z,26.13
2022-11-26T09:35:28.262Z,26.13
2022-11-26T09:36:28.249Z,26.13
2022-11-26T09:37:28.257Z,26.13
2022-11-26T09:38:28.257Z,26.13
2022-11-26T09:39:28.252Z,26.13
2022-11-26T09:40:28.268Z,26.13
2022-11-26T09:41:28.239Z,26.13
2022-11-26T09:42:28.250Z,26.13
2022-11-26T09:43:28.247Z,26.13
2022-11-26T09:44:28.245Z,26.13
2022-11-26T09:45:28.301Z,26.13
2022-11-26T09:46:40.549Z,26.13
2022-11-26T09:47:28.263Z,26.13
2022-11-26T09:48:28.282Z,26.13
2022-11-26T09:49:28.253Z,26.13
2022-11-26T09:50:28.273Z,26.13
2022-11-26T09:51:28.239Z,26.13
2022-11-26T09:52:33.926Z,26.13
2022-11-26T09:53:32.730Z,26.13
2022-11-26T09:54:32.719Z,26.13
2022-11-26T09:55:32.751Z,26.13
2022-11-26T09:56:32.701Z,26.13
2022-11-26T09:57:32.713Z,26.13
2022-11-26T09:58:32.707Z,26.13
2022-11-26T09:59:32.728Z,26.13
2022-11-26T10:00:32.699Z,26.13
2022-11-26T10:01:32.777Z,26.13
2022-11-26T10:02:32.745Z,26.13
2022-11-26T10:03:32.709Z,26.13
2022-11-26T10:04:32.709Z,26.13
2022-11-26T10:05:32.724Z,26.13
2022-11-26T10:06:32.707Z,26.13
2022-11-26T10:07:32.799Z,26.13
2022-11-26T10:08:32.709Z,26.13
2022-11-26T10:09:32.702Z,26.13
2022-11-26T10:10:32.739Z,26.13
2022-11-26T10:11:32.713Z,26.13
2022-11-26T10:12:34.088Z,26.13
2022-11-26T10:13:32.710Z,26.13
2022-11-26T10:14:32.705Z,26.13
2022-11-26T10:15:32.744Z,26.13
2022-11-26T10:16:32.765Z,25.95
2022-11-26T10:17:32.753Z,26.06
2022-11-26T10:18:32.697Z,25.79
2022-11-26T10:19:32.702Z,25.56
2022-11-26T10:20:32.700Z,25.56
2022-11-26T10:21:51.754Z,26.38
2022-11-26T10:22:32.715Z,26.75
2022-11-26T10:23:32.712Z,26.45
2022-11-26T10:24:32.697Z,26.45
2022-11-26T10:25:32.721Z,26.3
2022-11-26T10:26:32.705Z,26.34
2022-11-26T10:27:32.688Z,26.32
2022-11-26T10:28:32.696Z,25.93
2022-11-26T10:29:32.692Z,26.1
2022-11-26T10:30:32.699Z,26.1
2022-11-26T10:31:32.819Z,25.96
2022-11-26T10:32:32.696Z,25.96
2022-11-26T10:33:32.686Z,27.21
2022-11-26T10:34:38.722Z,26.95
2022-11-26T10:35:32.714Z,27.1
2022-11-26T10:36:32.693Z,26.84
2022-11-26T10:37:32.704Z,27.08
2022-11-26T10:38:32.700Z,27.08
2022-11-26T10:39:32.701Z,26.39
2022-11-26T10:40:32.705Z,26.39
2022-11-26T10:41:32.681Z,27.18
2022-11-26T10:42:32.678Z,26.96
2022-11-26T10:43:32.683Z,27.03
2022-11-26T10:44:32.683Z,26.96
2022-11-26T10:45:32.694Z,27.33
2022-11-26T10:46:32.801Z,27.35
2022-11-26T10:47:32.684Z,27.22
2022-11-26T10:48:32.679Z,28.27
2022-11-26T10:49:32.713Z,28.61
2022-11-26T10:50:47.293Z,28.21
2022-11-26T10:51:32.686Z,28.23
2022-11-26T10:52:32.686Z,28.57
2022-11-26T10:53:32.679Z,28.83
2022-11-26T10:54:32.690Z,28.38
2022-11-26T10:55:32.703Z,27.86
2022-11-26T10:56:32.734Z,27.8
2022-11-26T10:57:32.697Z,28.31
2022-11-26T10:58:32.682Z,28.24
2022-11-26T10:59:32.681Z,28.39
2022-11-26T11:00:32.749Z,28.39
2022-11-26T11:01:32.736Z,28.79
2022-11-26T11:02:32.816Z,28.06
2022-11-26T11:04:06.249Z,28.94
2022-11-26T11:04:32.708Z,29.17
2022-11-26T11:05:32.715Z,28.72
2022-11-26T11:06:32.693Z,28.9
2022-11-26T11:07:32.803Z,29.22
2022-11-26T11:08:32.693Z,29.37
2022-11-26T11:09:32.691Z,28.95
2022-11-26T11:10:32.695Z,28.95
2022-11-26T11:11:32.695Z,29.25
2022-11-26T11:12:32.681Z,29.25
2022-11-26T11:13:32.699Z,28.69
2022-11-26T11:14:32.697Z,30.15
2022-11-26T11:15:32.714Z,29.67
2022-11-26T11:16:32.737Z,29.2
2022-11-26T11:17:32.702Z,29.14
2022-11-26T11:18:32.698Z,30.1
2022-11-26T11:19:32.689Z,29.66
2022-11-26T11:20:32.702Z,29.66
2022-11-26T11:21:32.703Z,29.35
2022-11-26T11:22:32.693Z,29.24
2022-11-26T11:24:00.021Z,28.94
2022-11-26T11:24:32.688Z,29.77
2022-11-26T11:25:32.715Z,29.52
2022-11-26T11:26:32.697Z,29.08
2022-11-26T11:27:32.697Z,28.83
2022-11-26T11:28:32.678Z,28.83
2022-11-26T11:29:32.695Z,29.32
2022-11-26T11:30:32.706Z,29.32
2022-11-26T11:31:32.788Z,29.38
2022-11-26T11:32:32.697Z,28.96
2022-11-26T11:33:32.695Z,29.06
2022-11-26T11:34:32.695Z,28.66
2022-11-26T11:35:32.704Z,28.66
2022-11-26T11:36:32.693Z,30.17
2022-11-26T11:37:32.699Z,29.75
2022-11-26T11:38:32.692Z,30.06
2022-11-26T11:39:32.691Z,29.85
2022-11-26T11:40:32.704Z,29.85
2022-11-26T11:41:32.703Z,29.57
2022-11-26T11:42:32.696Z,29.57
2022-11-26T11:43:32.695Z,29.57
2022-11-26T11:44:32.701Z,29.71
2022-11-26T11:45:32.771Z,29.71
2022-11-26T11:46:32.679Z,30.07
2022-11-26T11:47:32.695Z,29.85
2022-11-26T11:48:32.702Z,30.37
2022-11-26T11:49:32.673Z,30.39
2022-11-26T11:50:32.702Z,30.56
2022-11-26T11:51:32.690Z,30.48
2022-11-26T11:52:32.674Z,30.94
2022-11-26T11:53:32.687Z,31.12
2022-11-26T11:54:32.690Z,30.83
2022-11-26T11:55:32.845Z,30.66
2022-11-26T11:56:32.675Z,30.84
2022-11-26T11:57:32.673Z,30.84
2022-11-26T11:58:32.672Z,30.41
2022-11-26T11:59:32.690Z,30.15
2022-11-26T12:00:32.700Z,29.92
2022-11-26T12:01:32.684Z,30.1
2022-11-26T12:02:32.749Z,30.94
2022-11-26T12:03:32.679Z,30.67
2022-11-26T12:04:32.736Z,31.03
2022-11-26T12:05:32.704Z,31.19
2022-11-26T12:06:32.686Z,30.72
2022-11-26T12:07:32.808Z,30.72
2022-11-26T12:08:32.685Z,30.82
2022-11-26T12:09:32.688Z,30.82
2022-11-26T12:10:35.627Z,30.82
2022-11-26T12:11:32.687Z,30.5
2022-11-26T12:12:32.714Z,30.93
2022-11-26T12:13:32.702Z,30.21
2022-11-26T12:14:32.691Z,30.73
2022-11-26T12:15:32.735Z,30.91
2022-11-26T12:16:32.826Z,31.23
2022-11-26T12:17:33.483Z,31.2
2022-11-26T12:18:32.693Z,30.99
2022-11-26T12:19:32.693Z,30.71
2022-11-26T12:20:32.694Z,30.71
2022-11-26T12:21:32.698Z,30.52
2022-11-26T12:22:32.695Z,30.71
2022-11-26T12:23:32.690Z,30.23
2022-11-26T12:24:32.682Z,30.81
2022-11-26T12:25:36.682Z,30.98
2022-11-26T12:26:32.688Z,30.58
2022-11-26T12:27:32.694Z,30.87
2022-11-26T12:28:32.693Z,30.79
2022-11-26T12:29:32.694Z,30.68
2022-11-26T12:30:32.695Z,30.68
2022-11-26T12:31:32.723Z,30.26
2022-11-26T12:32:32.681Z,30.04
2022-11-26T12:33:32.687Z,30.83
2022-11-26T12:34:32.686Z,30.31
2022-11-26T12:35:32.702Z,30.31
2022-11-26T12:36:32.700Z,30.88
2022-11-26T12:37:32.705Z,30.59
2022-11-26T12:38:32.687Z,30.59
2022-11-26T12:39:32.689Z,30.44
2022-11-26T12:40:32.694Z,30.44
2022-11-26T12:41:32.690Z,29.95
2022-11-26T12:42:32.696Z,31.09
2022-11-26T12:43:32.693Z,30.75
2022-11-26T12:44:32.700Z,30.71
2022-11-26T12:45:32.783Z,30.99
2022-11-26T12:46:32.695Z,30.27
2022-11-26T12:47:32.686Z,29.8
2022-11-26T12:48:32.694Z,30.33
2022-11-26T12:49:32.688Z,30.26
2022-11-26T12:50:35.175Z,30.26
2022-11-26T12:51:32.695Z,29.63
2022-11-26T12:52:32.692Z,29.78
2022-11-26T12:53:32.692Z,30.24
2022-11-26T12:54:32.686Z,30.32
2022-11-26T12:55:32.702Z,30.32
2022-11-26T12:56:32.672Z,31.23
2022-11-26T12:57:32.678Z,31.26
2022-11-26T12:58:32.680Z,30.95